Aeroporto :
LOGIN :

Iscrizione | Disclaimer

   EN    FR    IT 

 










Sommario :    VFR   VFR Marginale   IFR   IFR Intensivo   IFR Molto Intensivo
Visibilità : 
Base nubi : 
>= 8 km
>= 3000ft
5 / 8 km
1000 / 3000 ft
1500m / 5 km
500 / 1000 ft
800 / 1500m
200 / 500 ft
< 800m
< 200 ft
Simboli :   Temporali  Nebbia  Neve Forte  Precipitazioni Forti  Vento > 20 kt
SIGMETs :   Varie  Temporali  Ghiacco  Turbolenza  Onda orograficha  Ceneri Vulcaniche






- Altitudine del aeroporto : 1213 ft
- Codice IATA : SCQ


LEST - Santiago de Compostela

ULTIMO METAR :
  • 090730Z 16005KT 9000 FEW001 SCT030 BKN040 13/13 Q1017 NOSIG

METARs OBSOLETI :
  • 090700Z 13003KT 8000 -RA FEW005 SCT030 BKN040 13/13 Q1017 NOSIG
  • 090630Z 10004KT 080V140 8000 -RA FEW032 SCT045 13/13 Q1016 NOSIG
  • 090600Z 12003KT 5000 1500SE -RA FEW032 SCT045 13/13 Q1016 NOSIG
  • 090530Z 11004KT 6000 1000SE R17/P2000 R35/1000U -RA FEW010 BKN045 13/13 Q1016 NOSIG
  • 090500Z 12003KT 4000 RA BKN010 13/13 Q1017 NOSIG

TAF TAF LEST
Valido dal 09 a 06 ore il 10 a 06 ore UTC


090500Z 0906/1006 20008KT 9999 BKN025 TX15/0915Z TN12/1005Z
TEMPO 0906/0918 3000 -RA BR BKN005 BKN010
TEMPO 0906/0918 1500 RA BCFG BKN002
TEMPO 0921/1006 0800 FG VV001



MetMap, La meteo Aeronautica in un colpo d'occhio ! - Copyright ORBIFLY Dicembre 2007 - Disclaimer

ORBIFLY MET'MAP TEAM :

Programmazione e sviluppo : Alexandra Zaïnal
Concezione : Baudouin d'Aumeries
Aiuto per la programmazione : Marc-Olivier Méhu
Supporto tecnico e logistico : Manuel Goepfert
Aiuto per la traduzione : Arnaldo La Scala

Contatto : metmap@orbifly.com




FONTI E CREDITI :

   NOAA